CheckWX is a tool to help pilots better visualize weather data.  It is not intended as a substitute for an official pre-flight weather briefing.

01:26:19 UTC

5C1 METAR
Boerne Stage Field Airport
San Antonio, Texas, USA
Current

31 mins ago

K5C1 200055Z AUTO 15004KT 10SM CLR 32/17 A2996 RMK AO1
Observed
Aug-20 @ 00:55 UTC
Wind
  • 150° at 4 KTS
Visibility
10 SM
Flight Rules
VFR
Cloud Levels
  • Clear skies
Temperature
32°C / 90°F
Dewpoint
17°C / 63°F
Heat Index
33°C / 91°F
Humidity
41%
Altimeter
29.96" Hg
Pressure
1014.52 hPa
Previous

51 mins ago

K5C1 200035Z AUTO 16005KT 10SM CLR 33/17 A2996 RMK AO1
Observed
Aug-20 @ 00:35 UTC
Wind
  • 160° at 5 KTS
Visibility
10 SM
Flight Rules
VFR
Cloud Levels
  • Clear skies
Temperature
33°C / 91°F
Dewpoint
17°C / 63°F
Humidity
38%
Altimeter
29.96" Hg
Pressure
1014.52 hPa
Previous

2 hours ago

K5C1 192355Z AUTO 13006KT 10SM CLR 34/17 A2996 RMK AO1
Observed
Aug-19 @ 23:55 UTC
Wind
  • 130° at 6 KTS
Visibility
10 SM
Flight Rules
VFR
Cloud Levels
  • Clear skies
Temperature
34°C / 93°F
Dewpoint
17°C / 63°F
Humidity
36%
Altimeter
29.96" Hg
Pressure
1014.52 hPa